createdAt,value
2023-03-20T00:01:07.487Z,4.9
2023-03-20T00:02:22.787Z,5.1
2023-03-20T00:03:39.088Z,4.7
2023-03-20T00:04:55.374Z,4.5
2023-03-20T00:06:11.676Z,5.4
2023-03-20T00:07:27.977Z,6.3
2023-03-20T00:08:44.264Z,5
2023-03-20T00:10:00.554Z,5.5
2023-03-20T00:11:16.846Z,5.1
2023-03-20T00:12:33.147Z,5.6
2023-03-20T00:13:49.450Z,6
2023-03-20T00:15:05.738Z,5.4
2023-03-20T00:16:22.024Z,6.3
2023-03-20T00:17:38.321Z,5
2023-03-20T00:18:53.638Z,5.3
2023-03-20T00:20:09.933Z,5.5
2023-03-20T00:21:26.218Z,5.9
2023-03-20T00:22:42.515Z,5.8
2023-03-20T00:23:58.813Z,6.2
2023-03-20T00:25:15.101Z,6.3
2023-03-20T00:26:31.397Z,5.6
2023-03-20T00:27:47.686Z,6.1
2023-03-20T00:29:03.986Z,5.4
2023-03-20T00:30:20.280Z,6.4
2023-03-20T00:31:36.567Z,6.2
2023-03-20T00:32:52.874Z,5.8
2023-03-20T00:34:09.157Z,5.8
2023-03-20T00:35:24.477Z,5.6
2023-03-20T00:36:40.763Z,5.9
2023-03-20T00:37:57.055Z,6.8
2023-03-20T00:39:13.348Z,8.6
2023-03-20T00:40:29.650Z,5.3
2023-03-20T00:41:45.939Z,5.9
2023-03-20T00:43:02.233Z,5.6
2023-03-20T00:44:18.532Z,5.3
2023-03-20T00:45:34.828Z,4.8
2023-03-20T00:46:51.108Z,6.1
2023-03-20T00:48:07.400Z,5.8
2023-03-20T00:49:23.712Z,5.7
2023-03-20T00:50:39.991Z,5.5
2023-03-20T00:51:55.303Z,6.4
2023-03-20T00:53:11.596Z,6.1
2023-03-20T00:54:27.897Z,4.8
2023-03-20T00:55:44.180Z,5.3
2023-03-20T00:57:00.474Z,5.4
2023-03-20T00:58:16.771Z,6.8
2023-03-20T00:59:33.066Z,6.2
2023-03-20T01:00:49.354Z,6.5
2023-03-20T01:02:05.652Z,6.2
2023-03-20T01:03:21.954Z,6.5
2023-03-20T01:04:38.252Z,6.7
2023-03-20T01:05:54.530Z,6.4
2023-03-20T01:07:10.827Z,7.1
2023-03-20T01:08:26.152Z,5.8
2023-03-20T01:09:42.439Z,6.4
2023-03-20T01:10:58.742Z,7
2023-03-20T01:12:15.031Z,8.6
2023-03-20T01:13:31.318Z,6.2
2023-03-20T01:14:47.607Z,6.5
2023-03-20T01:16:03.901Z,7.8
2023-03-20T01:17:20.198Z,6.5
2023-03-20T01:18:36.496Z,7.1
2023-03-20T01:19:52.787Z,5.5
2023-03-20T01:21:09.076Z,8.1
2023-03-20T01:22:25.385Z,7
2023-03-20T01:23:41.679Z,7.6
2023-03-20T01:24:56.978Z,6.5
2023-03-20T01:26:13.275Z,6.4
2023-03-20T01:27:29.569Z,5.2
2023-03-20T01:28:45.867Z,6.2
2023-03-20T01:30:02.160Z,7.7
2023-03-20T01:31:18.449Z,6.7
2023-03-20T01:32:34.740Z,6.3
2023-03-20T01:33:51.030Z,6.4
2023-03-20T01:35:07.335Z,7.6
2023-03-20T01:36:23.630Z,6.3
2023-03-20T01:37:39.921Z,10.1
2023-03-20T01:38:56.224Z,6.6
2023-03-20T01:40:12.508Z,6.9
2023-03-20T01:41:27.813Z,7.8
2023-03-20T01:42:44.109Z,7
2023-03-20T01:44:00.401Z,7.2
2023-03-20T01:45:16.699Z,7.8
2023-03-20T01:46:32.989Z,7.4
2023-03-20T01:47:49.279Z,7.6
2023-03-20T01:49:05.586Z,8.9
2023-03-20T01:50:21.875Z,8
2023-03-20T01:51:38.167Z,9.4
2023-03-20T01:52:54.467Z,8.3
2023-03-20T01:54:10.757Z,7.4
2023-03-20T01:55:27.048Z,8.3
2023-03-20T01:56:43.349Z,7
2023-03-20T01:57:58.650Z,8.1
2023-03-20T01:59:14.963Z,9
2023-03-20T02:00:31.239Z,8.1
2023-03-20T02:01:47.537Z,7.4
2023-03-20T02:03:03.830Z,8.3
2023-03-20T02:04:20.123Z,7.6
2023-03-20T02:05:36.424Z,7.6
2023-03-20T02:06:52.711Z,9.5
2023-03-20T02:08:09.008Z,9.2
2023-03-20T02:09:25.309Z,9.9
2023-03-20T02:10:41.588Z,9.3
2023-03-20T02:11:57.889Z,9.8
2023-03-20T02:13:14.190Z,9.7
2023-03-20T02:14:29.498Z,8.2
2023-03-20T02:15:45.778Z,7.8
2023-03-20T02:17:02.076Z,8.9
2023-03-20T02:18:18.379Z,8.4
2023-03-20T02:19:34.679Z,7.9
2023-03-20T02:20:50.955Z,9.5
2023-03-20T02:22:07.273Z,9.2
2023-03-20T02:23:23.563Z,9.7
2023-03-20T02:24:39.854Z,9.6
2023-03-20T02:25:56.142Z,9.4
2023-03-20T02:27:12.434Z,9.4
2023-03-20T02:28:28.736Z,8.2
2023-03-20T02:29:45.018Z,8.3
2023-03-20T02:31:00.329Z,9.6
2023-03-20T02:32:16.622Z,8.7
2023-03-20T02:33:32.920Z,9
2023-03-20T02:34:49.215Z,9.8
2023-03-20T02:36:05.516Z,8.6
2023-03-20T02:37:21.796Z,11.4
2023-03-20T02:38:38.088Z,10.2
2023-03-20T02:39:54.384Z,9.1
2023-03-20T02:41:10.683Z,8.9
2023-03-20T02:42:26.985Z,9.5
2023-03-20T02:43:43.270Z,8.9
2023-03-20T02:44:59.569Z,8.4
2023-03-20T02:46:15.860Z,9.3
2023-03-20T02:47:31.162Z,8.9
2023-03-20T02:48:47.463Z,8.9
2023-03-20T02:50:03.763Z,8.6
2023-03-20T02:51:20.051Z,10
2023-03-20T02:52:36.346Z,10.6
2023-03-20T02:53:52.642Z,9.8
2023-03-20T02:55:08.942Z,9.3
2023-03-20T02:56:25.223Z,8
2023-03-20T02:57:41.515Z,10.9
2023-03-20T02:58:57.807Z,9.7
2023-03-20T03:00:14.121Z,8.6
2023-03-20T03:01:30.416Z,8.5
2023-03-20T03:02:46.691Z,10
2023-03-20T03:04:02.015Z,7.7
2023-03-20T03:05:18.295Z,8.1
2023-03-20T03:06:34.595Z,9.2
2023-03-20T03:07:50.879Z,7.8
2023-03-20T03:09:07.187Z,8.5
2023-03-20T03:10:23.468Z,7.8
2023-03-20T03:11:39.775Z,8.8
2023-03-20T03:12:56.058Z,8.9
2023-03-20T03:14:12.366Z,8
2023-03-20T03:15:28.657Z,8.2
2023-03-20T03:16:44.947Z,7.5
2023-03-20T03:18:01.232Z,8.2
2023-03-20T03:19:17.527Z,9.3
2023-03-20T03:20:32.855Z,8.6
2023-03-20T03:21:49.140Z,9.2
2023-03-20T03:23:05.429Z,7.9
2023-03-20T03:24:21.736Z,11.5
2023-03-20T03:25:38.019Z,10.5
2023-03-20T03:26:54.308Z,8.7
2023-03-20T03:28:10.621Z,9.4
2023-03-20T03:29:26.905Z,8.9
2023-03-20T03:30:43.204Z,9.4
2023-03-20T03:31:59.485Z,7.7
2023-03-20T03:33:15.787Z,7.8
2023-03-20T03:34:32.092Z,8.4
2023-03-20T03:37:04.671Z,7.6
2023-03-20T03:38:19.975Z,8.8
2023-03-20T03:39:36.265Z,9
2023-03-20T03:40:52.000Z,7.3
2023-03-20T03:42:08.871Z,8.9
2023-03-20T03:43:25.162Z,9
2023-03-20T03:44:41.440Z,7.7
2023-03-20T03:45:57.738Z,7.7
2023-03-20T03:47:14.026Z,7.9
2023-03-20T03:48:30.335Z,8.5
2023-03-20T03:49:46.630Z,8.7
2023-03-20T03:51:02.912Z,8
2023-03-20T03:52:19.205Z,8.9
2023-03-20T03:53:35.511Z,8.5
2023-03-20T03:54:50.823Z,8.5
2023-03-20T03:57:23.402Z,7.4
2023-03-20T03:58:39.703Z,8.6
2023-03-20T03:59:55.988Z,7
2023-03-20T04:01:11.298Z,7.9
2023-03-20T04:02:27.595Z,7.1
2023-03-20T04:03:43.892Z,8.8
2023-03-20T04:05:00.182Z,7.3
2023-03-20T04:06:16.486Z,8.7
2023-03-20T04:07:32.766Z,8.5
2023-03-20T04:08:49.065Z,8.2
2023-03-20T04:10:05.375Z,7.9
2023-03-20T04:11:21.658Z,8.8
2023-03-20T04:12:37.960Z,7.9
2023-03-20T04:13:54.253Z,7.7
2023-03-20T04:15:10.544Z,9.4
2023-03-20T04:16:26.834Z,8.9
2023-03-20T04:17:42.150Z,7.5
2023-03-20T04:18:58.447Z,8.8
2023-03-20T04:20:14.727Z,9.1
2023-03-20T04:21:31.025Z,7.7
2023-03-20T04:22:47.312Z,7.4
2023-03-20T04:24:03.614Z,8.1
2023-03-20T04:25:19.903Z,7.7
2023-03-20T04:26:36.209Z,8.5
2023-03-20T04:27:52.505Z,7.8
2023-03-20T04:29:08.795Z,8.5
2023-03-20T04:30:25.084Z,7.9
2023-03-20T04:31:41.375Z,8.1
2023-03-20T04:32:57.664Z,9.5
2023-03-20T04:34:12.977Z,7.3
2023-03-20T04:35:29.271Z,9.7
2023-03-20T04:36:45.561Z,7.6
2023-03-20T04:38:01.855Z,8.3
2023-03-20T04:39:18.152Z,7.6
2023-03-20T04:40:34.467Z,8.2
2023-03-20T04:41:50.749Z,7.1
2023-03-20T04:43:07.042Z,9.1
2023-03-20T04:44:23.335Z,7.6
2023-03-20T04:45:39.630Z,8.6
2023-03-20T04:46:55.925Z,8.5
2023-03-20T04:48:12.163Z,8.2
2023-03-20T04:49:28.468Z,7.2
2023-03-20T04:50:43.765Z,8.7
2023-03-20T04:52:00.018Z,7.9
2023-03-20T04:53:16.275Z,7.6
2023-03-20T04:54:32.561Z,8.4
2023-03-20T04:55:48.800Z,7.5
2023-03-20T04:57:05.036Z,8.7
2023-03-20T04:58:21.277Z,7.5
2023-03-20T04:59:37.516Z,7.3
2023-03-20T05:00:53.766Z,8.6
2023-03-20T05:02:09.997Z,8.6
2023-03-20T05:03:26.245Z,9.4
2023-03-20T05:04:42.488Z,8.4
2023-03-20T05:05:58.724Z,8.7
2023-03-20T05:07:13.993Z,7.7
2023-03-20T05:08:30.234Z,8.3
2023-03-20T05:09:46.458Z,10.7
2023-03-20T05:11:02.694Z,9.2
2023-03-20T05:12:18.944Z,8.8
2023-03-20T05:13:35.179Z,10.4
2023-03-20T05:14:51.425Z,9.8
2023-03-20T05:16:07.667Z,9.2
2023-03-20T05:17:23.910Z,8.7
2023-03-20T05:18:40.160Z,9.8
2023-03-20T05:19:56.392Z,9.7
2023-03-20T05:21:12.623Z,9.5
2023-03-20T05:22:28.873Z,9.4
2023-03-20T05:23:44.125Z,9.8
2023-03-20T05:25:00.371Z,11.7
2023-03-20T05:26:16.592Z,9.9
2023-03-20T05:27:32.837Z,9.5
2023-03-20T05:28:49.096Z,10.5
2023-03-20T05:30:05.320Z,10.1
2023-03-20T05:31:21.572Z,9
2023-03-20T05:32:37.798Z,11
2023-03-20T05:33:54.042Z,7.8
2023-03-20T05:35:10.283Z,8.4
2023-03-20T05:36:26.530Z,8.3
2023-03-20T05:37:42.757Z,9.6
2023-03-20T05:38:59.006Z,8.5
2023-03-20T05:40:14.261Z,10.8
2023-03-20T05:41:30.501Z,11.7
2023-03-20T05:42:46.748Z,10.2
2023-03-20T05:44:02.994Z,8.7
2023-03-20T05:45:19.215Z,10.5
2023-03-20T05:46:35.462Z,9.6
2023-03-20T05:47:51.689Z,8.6
2023-03-20T05:49:07.938Z,9.3
2023-03-20T05:50:24.185Z,9.4
2023-03-20T05:51:40.427Z,8.2
2023-03-20T05:52:56.656Z,9.6
2023-03-20T05:54:12.904Z,10.5
2023-03-20T05:55:29.149Z,11.2
2023-03-20T05:56:44.403Z,9.6
2023-03-20T05:58:00.635Z,8.9
2023-03-20T05:59:16.869Z,10.8
2023-03-20T06:00:33.116Z,9.3
2023-03-20T06:01:49.346Z,8.8
2023-03-20T06:03:05.599Z,8.1
2023-03-20T06:04:21.847Z,9.5
2023-03-20T06:05:38.082Z,10.6
2023-03-20T06:06:54.329Z,9.4
2023-03-20T06:08:10.564Z,9.5
2023-03-20T06:09:26.801Z,10.9
2023-03-20T06:10:43.043Z,9.9
2023-03-20T06:11:59.279Z,9.5
2023-03-20T06:13:14.540Z,10.1
2023-03-20T06:14:30.772Z,8.5
2023-03-20T06:15:47.016Z,9.2
2023-03-20T06:17:03.248Z,9.9
2023-03-20T06:18:19.486Z,10.1
2023-03-20T06:19:35.733Z,10.7
2023-03-20T06:20:51.976Z,10.7
2023-03-20T06:22:08.223Z,9.5
2023-03-20T06:23:24.445Z,9.1
2023-03-20T06:24:40.698Z,9.9
2023-03-20T06:25:56.938Z,10
2023-03-20T06:27:13.181Z,10.5
2023-03-20T06:28:29.412Z,9.4
2023-03-20T06:29:44.663Z,10.2
2023-03-20T06:31:00.909Z,10.4
2023-03-20T06:32:17.153Z,11.5
2023-03-20T06:33:33.384Z,9.3
2023-03-20T06:34:49.645Z,11.7
2023-03-20T06:36:05.868Z,9.7
2023-03-20T06:37:22.128Z,11.5
2023-03-20T06:38:38.350Z,10.5
2023-03-20T06:39:54.600Z,10.9
2023-03-20T06:41:10.834Z,13.1
2023-03-20T06:42:27.062Z,11.5
2023-03-20T06:43:43.313Z,9.8
2023-03-20T06:44:59.543Z,11
2023-03-20T06:46:14.810Z,10.3
2023-03-20T06:47:31.052Z,12
2023-03-20T06:48:47.285Z,12.6
2023-03-20T06:50:03.528Z,11
2023-03-20T06:51:19.767Z,11.4
2023-03-20T06:52:36.012Z,12.1
2023-03-20T06:53:52.243Z,12.1
2023-03-20T06:55:08.482Z,11.5
2023-03-20T06:56:24.729Z,11.7
2023-03-20T06:57:40.955Z,11.8
2023-03-20T06:58:57.210Z,13.8
2023-03-20T07:00:13.441Z,11.5
2023-03-20T07:01:29.693Z,13.9
2023-03-20T07:02:44.948Z,11.8
2023-03-20T07:04:01.184Z,11.1
2023-03-20T07:05:17.418Z,11
2023-03-20T07:06:33.653Z,11.5
2023-03-20T07:07:49.907Z,11.8
2023-03-20T07:09:06.134Z,12.4
2023-03-20T07:10:22.381Z,12.5
2023-03-20T07:11:38.626Z,12.5
2023-03-20T07:12:54.879Z,11.9
2023-03-20T07:14:11.094Z,12.5
2023-03-20T07:15:27.356Z,12
2023-03-20T07:16:43.000Z,13.7
2023-03-20T07:17:59.828Z,15.7
2023-03-20T07:19:15.068Z,20.8
2023-03-20T07:20:31.321Z,19.4
2023-03-20T07:21:47.553Z,15.4
2023-03-20T07:23:03.802Z,15
2023-03-20T07:24:20.032Z,14.4
2023-03-20T07:25:36.280Z,19.6
2023-03-20T07:26:52.527Z,20.3
2023-03-20T07:28:08.761Z,19.2
2023-03-20T07:29:25.000Z,20.4
2023-03-20T07:30:41.257Z,20.1
2023-03-20T07:31:57.477Z,20.8
2023-03-20T07:33:13.719Z,15.8
2023-03-20T07:34:29.952Z,13.8
2023-03-20T07:35:45.203Z,12.4
2023-03-20T07:37:01.452Z,14.3
2023-03-20T07:38:17.692Z,13.3
2023-03-20T07:39:33.939Z,13.6
2023-03-20T07:40:50.165Z,12
2023-03-20T07:42:06.417Z,12
2023-03-20T07:43:22.654Z,13.3
2023-03-20T07:44:38.883Z,12.3
2023-03-20T07:45:55.138Z,12
2023-03-20T07:47:11.368Z,12.3
2023-03-20T07:48:27.610Z,12.2
2023-03-20T07:49:43.855Z,12.4
2023-03-20T07:51:00.085Z,14.2
2023-03-20T07:52:15.342Z,13.4
2023-03-20T07:53:31.581Z,12.4
2023-03-20T07:54:47.835Z,11.8
2023-03-20T07:56:04.069Z,10.5
2023-03-20T07:57:20.313Z,12.3
2023-03-20T07:58:36.540Z,10.5
2023-03-20T07:59:52.785Z,11.1
2023-03-20T08:01:09.041Z,10.8
2023-03-20T08:02:25.274Z,10.4
2023-03-20T08:03:41.510Z,14.9
2023-03-20T08:04:57.759Z,16.1
2023-03-20T08:06:13.985Z,17.4
2023-03-20T08:07:30.241Z,15.6
2023-03-20T08:08:45.475Z,15.7
2023-03-20T08:10:01.717Z,16.1
2023-03-20T08:11:17.956Z,20.3
2023-03-20T08:12:34.202Z,21.4
2023-03-20T08:13:50.455Z,20.9
2023-03-20T08:15:06.691Z,23.3
2023-03-20T08:16:21.949Z,24.7
2023-03-20T08:17:38.196Z,26.9
2023-03-20T08:18:54.419Z,27.7
2023-03-20T08:20:10.658Z,26.9
2023-03-20T08:21:26.912Z,29.7
2023-03-20T08:22:43.155Z,33.1
2023-03-20T08:23:59.393Z,33.9
2023-03-20T08:25:15.616Z,32.2
2023-03-20T08:26:31.866Z,36.6
2023-03-20T08:27:48.106Z,37.2
2023-03-20T08:29:04.347Z,34.7
2023-03-20T08:30:20.593Z,36.1
2023-03-20T08:31:36.830Z,37.6
2023-03-20T08:32:52.072Z,37.2
2023-03-20T08:34:08.321Z,41.1
2023-03-20T08:35:24.562Z,39.5
2023-03-20T08:36:40.797Z,39.6
2023-03-20T08:37:57.056Z,37.6
2023-03-20T08:39:13.288Z,39.1
2023-03-20T08:40:29.516Z,37.2
2023-03-20T08:41:45.754Z,38.7
2023-03-20T08:43:02.015Z,37.8
2023-03-20T08:44:18.239Z,38.8
2023-03-20T08:45:34.477Z,38.3
2023-03-20T08:46:50.723Z,39.9
2023-03-20T08:48:06.966Z,37.4
2023-03-20T08:49:22.212Z,40.3
2023-03-20T08:50:38.461Z,38.5
2023-03-20T08:51:54.686Z,40.1
2023-03-20T08:53:10.944Z,37.3
2023-03-20T08:54:27.185Z,38.5
2023-03-20T08:55:43.419Z,37.4
2023-03-20T08:56:59.663Z,39.7
2023-03-20T08:58:15.897Z,42.1
2023-03-20T08:59:32.145Z,40.7
2023-03-20T09:00:48.382Z,39.7
2023-03-20T09:02:04.604Z,36.1
2023-03-20T09:03:20.861Z,37.7
2023-03-20T09:04:37.104Z,36.3
2023-03-20T09:05:53.348Z,37.3
2023-03-20T09:07:08.588Z,42.4
2023-03-20T09:08:24.821Z,39.2
2023-03-20T09:09:41.087Z,38.9
2023-03-20T09:10:57.300Z,38.7
2023-03-20T09:12:13.551Z,39.3
2023-03-20T09:13:29.795Z,38
2023-03-20T09:14:46.033Z,40.6
2023-03-20T09:16:02.276Z,39.9
2023-03-20T09:17:18.505Z,41.7
2023-03-20T09:18:34.746Z,40.7
2023-03-20T09:19:50.983Z,39.9
2023-03-20T09:21:07.228Z,39.3
2023-03-20T09:22:23.470Z,44.4
2023-03-20T09:23:38.737Z,42.2
2023-03-20T09:24:54.986Z,44.1
2023-03-20T09:26:11.220Z,43.9
2023-03-20T09:27:27.446Z,49
2023-03-20T09:28:43.691Z,46.7
2023-03-20T09:29:59.937Z,46.8
2023-03-20T09:31:16.158Z,48.1
2023-03-20T09:32:32.421Z,48.9
2023-03-20T09:33:48.640Z,49.3
2023-03-20T09:35:04.893Z,44.8
2023-03-20T09:36:21.124Z,48.1
2023-03-20T09:37:37.385Z,45.4
2023-03-20T09:38:53.613Z,49.1
2023-03-20T09:40:08.853Z,48.1
2023-03-20T09:41:25.104Z,47
2023-03-20T09:42:41.333Z,44.4
2023-03-20T09:43:57.576Z,43.5
2023-03-20T09:45:13.813Z,48.6
2023-03-20T09:46:30.055Z,43.2
2023-03-20T09:47:46.300Z,43.1
2023-03-20T09:49:02.546Z,43.6
2023-03-20T09:50:18.787Z,42.7
2023-03-20T09:51:35.026Z,40.7
2023-03-20T09:52:51.265Z,42.9
2023-03-20T09:54:07.489Z,40.4
2023-03-20T09:55:23.746Z,41.3
2023-03-20T09:56:38.987Z,41.1
2023-03-20T09:57:55.231Z,40.3
2023-03-20T09:59:11.485Z,40.9
2023-03-20T10:00:27.718Z,41.3
2023-03-20T10:01:43.952Z,39.2
2023-03-20T10:03:00.190Z,37.8
2023-03-20T10:05:32.674Z,39.6
2023-03-20T10:06:48.919Z,39.3
2023-03-20T10:08:05.151Z,42.2
2023-03-20T10:09:21.402Z,41.2
2023-03-20T10:10:37.638Z,42.6
2023-03-20T10:11:53.885Z,38.4
2023-03-20T10:13:09.142Z,43.5
2023-03-20T10:14:25.378Z,41.9
2023-03-20T10:15:41.630Z,39.6
2023-03-20T10:16:57.857Z,41.8
2023-03-20T10:18:14.094Z,41.2
2023-03-20T10:19:30.340Z,39
2023-03-20T10:20:46.561Z,41.9
2023-03-20T10:22:02.817Z,45.1
2023-03-20T10:23:19.054Z,40.8
2023-03-20T10:24:35.284Z,43.6
2023-03-20T10:25:51.522Z,41.4
2023-03-20T10:27:07.763Z,39.7
2023-03-20T10:28:24.025Z,42
2023-03-20T10:29:40.257Z,41.1
2023-03-20T10:30:55.504Z,43.2
2023-03-20T10:32:11.743Z,42.7
2023-03-20T10:33:27.991Z,40.2
2023-03-20T10:34:44.235Z,41.6
2023-03-20T10:36:00.471Z,41.3
2023-03-20T10:37:16.705Z,43.5
2023-03-20T10:38:32.961Z,42.3
2023-03-20T10:39:49.185Z,42.6
2023-03-20T10:41:05.433Z,43.8
2023-03-20T10:42:21.661Z,41.8
2023-03-20T10:43:37.903Z,39.2
2023-03-20T10:44:54.138Z,39.9
2023-03-20T10:46:10.376Z,41.2
2023-03-20T10:47:25.655Z,42.2
2023-03-20T10:48:41.891Z,39.8
2023-03-20T10:49:58.132Z,40.9
2023-03-20T10:51:14.367Z,43.8
2023-03-20T10:52:30.596Z,41.1
2023-03-20T10:53:46.857Z,41.2
2023-03-20T10:55:03.084Z,44.3
2023-03-20T10:56:19.325Z,43.6
2023-03-20T10:57:35.571Z,43.5
2023-03-20T10:58:51.794Z,43.6
2023-03-20T11:00:08.052Z,42.8
2023-03-20T11:01:24.285Z,46
2023-03-20T11:02:40.511Z,44.5
2023-03-20T11:03:55.798Z,44.7
2023-03-20T11:05:12.023Z,46.1
2023-03-20T11:06:28.278Z,44.3
2023-03-20T11:07:44.503Z,46
2023-03-20T11:09:00.751Z,43.1
2023-03-20T11:10:16.969Z,47.4
2023-03-20T11:11:33.227Z,47.2
2023-03-20T11:12:49.454Z,47.5
2023-03-20T11:14:05.712Z,44.3
2023-03-20T11:15:21.928Z,42.5
2023-03-20T11:16:38.174Z,47.4
2023-03-20T11:17:54.409Z,41.9
2023-03-20T11:19:10.673Z,43.9
2023-03-20T11:20:25.911Z,45.3
2023-03-20T11:21:42.148Z,44.5
2023-03-20T11:22:58.409Z,45.2
2023-03-20T11:24:14.623Z,45.5
2023-03-20T11:25:30.864Z,42.3
2023-03-20T11:26:47.117Z,44.9
2023-03-20T11:28:03.356Z,43.3
2023-03-20T11:29:19.606Z,45.8
2023-03-20T11:30:35.834Z,43.2
2023-03-20T11:31:52.073Z,46.3
2023-03-20T11:33:08.312Z,41.3
2023-03-20T11:34:24.560Z,44.8
2023-03-20T11:35:40.806Z,43
2023-03-20T11:36:56.055Z,45
2023-03-20T11:38:12.278Z,42.7
2023-03-20T11:39:28.520Z,44.8
2023-03-20T11:40:44.763Z,45.7
2023-03-20T11:42:01.001Z,45
2023-03-20T11:44:33.500Z,43
2023-03-20T11:45:49.743Z,45.5
2023-03-20T11:47:05.967Z,48.1
2023-03-20T11:48:22.201Z,46.4
2023-03-20T11:49:38.441Z,48.2
2023-03-20T11:50:54.689Z,45.6
2023-03-20T11:52:10.950Z,51.1
2023-03-20T11:53:26.177Z,47.4
2023-03-20T11:54:42.437Z,51
2023-03-20T11:55:58.665Z,46.4
2023-03-20T11:57:14.896Z,50.2
2023-03-20T11:58:31.151Z,51.6
2023-03-20T11:59:47.375Z,52.3
2023-03-20T12:01:03.639Z,46.2
2023-03-20T12:02:19.869Z,51.6
2023-03-20T12:03:36.100Z,51.1
2023-03-20T12:04:52.368Z,51.9
2023-03-20T12:06:08.577Z,49.3
2023-03-20T12:07:24.814Z,47.7
2023-03-20T12:08:41.066Z,53.7
2023-03-20T12:09:56.327Z,50.2
2023-03-20T12:11:12.547Z,52.6
2023-03-20T12:12:28.792Z,50.7
2023-03-20T12:13:45.037Z,50.7
2023-03-20T12:15:01.276Z,48.1
2023-03-20T12:16:17.531Z,51.4
2023-03-20T12:17:33.760Z,49.2
2023-03-20T12:18:50.007Z,46.1
2023-03-20T12:20:06.231Z,48.2
2023-03-20T12:21:22.478Z,47.2
2023-03-20T12:22:38.709Z,47.6
2023-03-20T12:23:54.970Z,45.5
2023-03-20T12:25:11.192Z,47.4
2023-03-20T12:26:26.460Z,51.4
2023-03-20T12:27:42.694Z,47.5
2023-03-20T12:28:58.941Z,48.5
2023-03-20T12:30:15.172Z,47.2
2023-03-20T12:31:30.454Z,49.2
2023-03-20T12:32:46.680Z,47.1
2023-03-20T12:34:02.907Z,48.1
2023-03-20T12:35:19.158Z,46.1
2023-03-20T12:36:35.383Z,48.5
2023-03-20T12:37:51.639Z,50.9
2023-03-20T12:39:07.869Z,48.9
2023-03-20T12:40:24.134Z,46.8
2023-03-20T12:41:40.366Z,49.4
2023-03-20T12:42:56.591Z,50.5
2023-03-20T12:44:12.855Z,49.1
2023-03-20T12:45:29.095Z,50.4
2023-03-20T12:46:45.302Z,44.6
2023-03-20T12:48:00.569Z,50.9
2023-03-20T12:49:16.804Z,51.7
2023-03-20T12:50:33.038Z,47.1
2023-03-20T12:51:49.289Z,49.3
2023-03-20T12:53:05.523Z,49.9
2023-03-20T12:54:21.770Z,45.3
2023-03-20T12:55:38.021Z,47.6
2023-03-20T12:56:54.255Z,47.8
2023-03-20T12:58:10.494Z,46.7
2023-03-20T12:59:26.731Z,48.7
2023-03-20T13:00:42.963Z,47.9
2023-03-20T13:01:59.216Z,48.5
2023-03-20T13:03:15.440Z,44.8
2023-03-20T13:04:30.691Z,43.5
2023-03-20T13:05:46.957Z,47.6
2023-03-20T13:07:03.181Z,49
2023-03-20T13:08:19.414Z,49.2
2023-03-20T13:09:35.673Z,49.3
2023-03-20T13:10:51.908Z,46.4
2023-03-20T13:12:08.132Z,52.1
2023-03-20T13:13:24.375Z,48.3
2023-03-20T13:14:40.616Z,47.6
2023-03-20T13:15:56.868Z,51.1
2023-03-20T13:17:13.094Z,48
2023-03-20T13:18:29.333Z,49.6
2023-03-20T13:19:45.577Z,52.8
2023-03-20T13:21:00.836Z,50.4
2023-03-20T13:22:17.086Z,50.3
2023-03-20T13:23:33.312Z,45.4
2023-03-20T13:24:49.560Z,49.9
2023-03-20T13:26:05.803Z,49.9
2023-03-20T13:27:22.045Z,47.7
2023-03-20T13:28:38.278Z,47.2
2023-03-20T13:29:54.525Z,47.7
2023-03-20T13:31:10.763Z,48.5
2023-03-20T13:32:26.985Z,45.4
2023-03-20T13:33:43.239Z,49.3
2023-03-20T13:34:59.493Z,50.8
2023-03-20T13:36:15.733Z,48.7
2023-03-20T13:37:30.960Z,43.1
2023-03-20T13:38:47.233Z,49.9
2023-03-20T13:40:03.452Z,52.8
2023-03-20T13:41:19.700Z,48.1
2023-03-20T13:43:52.176Z,46.6
2023-03-20T13:45:08.404Z,46.4
2023-03-20T13:46:24.642Z,44.5
2023-03-20T13:47:40.884Z,44
2023-03-20T13:48:57.144Z,47.3
2023-03-20T13:50:13.378Z,48.1
2023-03-20T13:51:29.635Z,44.1
2023-03-20T13:52:45.845Z,46.2
2023-03-20T13:54:01.112Z,46.5
2023-03-20T13:55:17.350Z,45.3
2023-03-20T13:56:33.577Z,48.6
2023-03-20T13:57:49.826Z,37.4
2023-03-20T13:59:06.071Z,37.4
2023-03-20T14:00:22.295Z,34.6
2023-03-20T14:01:38.560Z,32.2
2023-03-20T14:02:54.790Z,32.5
2023-03-20T14:04:11.016Z,29.3
2023-03-20T14:05:27.273Z,28.3
2023-03-20T14:06:43.523Z,31.3
2023-03-20T14:07:59.735Z,34.5
2023-03-20T14:09:15.995Z,30.2
2023-03-20T14:10:31.244Z,30.1
2023-03-20T14:11:47.501Z,28.7
2023-03-20T14:13:03.716Z,27.1
2023-03-20T14:14:19.985Z,26.7
2023-03-20T14:15:36.200Z,27.8
2023-03-20T14:16:52.450Z,25.6
2023-03-20T14:18:08.707Z,27.5
2023-03-20T14:19:24.916Z,25.9
2023-03-20T14:20:41.170Z,26.3
2023-03-20T14:21:57.399Z,25.4
2023-03-20T14:23:13.646Z,26.4
2023-03-20T14:24:29.906Z,26.3
2023-03-20T14:25:46.124Z,24.4
2023-03-20T14:27:01.375Z,25.3
2023-03-20T14:28:17.637Z,23.1
2023-03-20T14:29:33.869Z,25.3
2023-03-20T14:30:50.095Z,23.8
2023-03-20T14:32:06.340Z,24.8
2023-03-20T14:33:22.564Z,24.5
2023-03-20T14:34:38.808Z,24.6
2023-03-20T14:35:55.061Z,22.3
2023-03-20T14:37:11.310Z,21.4
2023-03-20T14:38:27.530Z,22.1
2023-03-20T14:39:43.783Z,22.7
2023-03-20T14:41:00.028Z,21.4
2023-03-20T14:42:16.265Z,21.7
2023-03-20T14:43:31.508Z,21.9
2023-03-20T14:44:47.763Z,20.6
2023-03-20T14:46:03.979Z,21.5
2023-03-20T14:47:20.220Z,20.8
2023-03-20T14:48:36.480Z,20.3
2023-03-20T14:49:52.718Z,22.6
2023-03-20T14:51:08.940Z,20.3
2023-03-20T14:52:25.209Z,19.3
2023-03-20T14:54:57.661Z,20
2023-03-20T14:56:13.929Z,21.4
2023-03-20T14:57:30.149Z,19.1
2023-03-20T14:58:46.381Z,20
2023-03-20T15:00:01.660Z,20.8
2023-03-20T15:01:17.873Z,22.1
2023-03-20T15:02:34.134Z,20.3
2023-03-20T15:03:50.367Z,21.8
2023-03-20T15:05:06.597Z,21.8
2023-03-20T15:06:22.854Z,22.2
2023-03-20T15:07:39.083Z,21.4
2023-03-20T15:08:55.323Z,22.8
2023-03-20T15:10:11.565Z,22.7
2023-03-20T15:11:27.828Z,24.7
2023-03-20T15:12:44.036Z,25.5
2023-03-20T15:14:00.275Z,24.2
2023-03-20T15:15:16.549Z,24.9
2023-03-20T15:16:31.785Z,24
2023-03-20T15:17:48.009Z,24.5
2023-03-20T15:19:04.274Z,26.6
2023-03-20T15:20:20.508Z,24.1
2023-03-20T15:21:36.734Z,24.6
2023-03-20T15:22:52.967Z,24
2023-03-20T15:24:09.225Z,23.8
2023-03-20T15:25:25.484Z,23.7
2023-03-20T15:26:41.708Z,22.5
2023-03-20T15:27:57.938Z,24.9
2023-03-20T15:29:14.169Z,23.5
2023-03-20T15:30:30.420Z,21.9
2023-03-20T15:31:46.654Z,23.6
2023-03-20T15:33:01.932Z,22.4
2023-03-20T15:34:18.174Z,22.9
2023-03-20T15:35:34.397Z,23.8
2023-03-20T15:36:50.627Z,23.3
2023-03-20T15:38:06.876Z,23.3
2023-03-20T15:39:23.109Z,24
2023-03-20T15:40:39.364Z,23.8
2023-03-20T15:41:55.603Z,23.2
2023-03-20T15:43:11.844Z,24.6
2023-03-20T15:44:28.083Z,24.8
2023-03-20T15:45:44.332Z,25.6
2023-03-20T15:47:00.562Z,26.1
2023-03-20T15:48:16.793Z,25.7
2023-03-20T15:49:32.079Z,27.3
2023-03-20T15:50:48.281Z,27.6
2023-03-20T15:52:04.524Z,30
2023-03-20T15:53:20.775Z,29.8
2023-03-20T15:54:37.012Z,27.4
2023-03-20T15:55:53.265Z,30.1
2023-03-20T15:57:09.487Z,28.8
2023-03-20T15:58:25.738Z,29.4
2023-03-20T15:59:41.958Z,30.8
2023-03-20T16:00:58.231Z,28.9
2023-03-20T16:02:14.455Z,27.1
2023-03-20T16:03:30.693Z,28.7
2023-03-20T16:04:46.922Z,26.8
2023-03-20T16:06:02.182Z,26.6
2023-03-20T16:07:18.419Z,26.4
2023-03-20T16:08:34.688Z,26.1
2023-03-20T16:09:50.900Z,25.4
2023-03-20T16:11:07.149Z,27
2023-03-20T16:12:23.414Z,26.3
2023-03-20T16:14:55.880Z,28.3
2023-03-20T16:16:12.115Z,28.8
2023-03-20T16:17:28.334Z,26.8
2023-03-20T16:18:44.579Z,26.9
2023-03-20T16:20:00.814Z,28.2
2023-03-20T16:21:17.085Z,25.8
2023-03-20T16:22:32.334Z,28.4
2023-03-20T16:23:48.558Z,30.2
2023-03-20T16:25:04.802Z,26.9
2023-03-20T16:26:21.056Z,28.3
2023-03-20T16:27:37.269Z,26.9
2023-03-20T16:28:53.521Z,25.7
2023-03-20T16:30:09.755Z,29.6
2023-03-20T16:31:25.992Z,28.2
2023-03-20T16:33:58.495Z,30
2023-03-20T16:35:14.716Z,28.3
2023-03-20T16:36:30.972Z,28
2023-03-20T16:37:47.199Z,29
2023-03-20T16:39:02.455Z,30.6
2023-03-20T16:40:18.687Z,29.1
2023-03-20T16:41:34.932Z,24.4
2023-03-20T16:42:51.179Z,27.9
2023-03-20T16:44:07.418Z,27.9
2023-03-20T16:45:23.654Z,23.6
2023-03-20T16:46:38.915Z,24.8
2023-03-20T16:47:55.155Z,24.3
2023-03-20T16:49:11.409Z,26.7
2023-03-20T16:50:27.625Z,27.7
2023-03-20T16:51:43.871Z,29.2
2023-03-20T16:53:00.111Z,25
2023-03-20T16:54:16.375Z,22.8
2023-03-20T16:55:32.583Z,24.1
2023-03-20T16:56:48.824Z,26.5
2023-03-20T16:58:05.087Z,23.9
2023-03-20T16:59:21.330Z,21.9
2023-03-20T17:00:37.550Z,26.1
2023-03-20T17:01:53.823Z,24.9
2023-03-20T17:03:09.044Z,21.5
2023-03-20T17:04:25.281Z,24.2
2023-03-20T17:05:41.532Z,21.8
2023-03-20T17:06:57.766Z,22.3
2023-03-20T17:08:14.015Z,20.1
2023-03-20T17:09:30.246Z,20.9
2023-03-20T17:10:46.480Z,19.7
2023-03-20T17:12:02.758Z,19.3
2023-03-20T17:13:18.972Z,22.2
2023-03-20T17:14:35.207Z,20.5
2023-03-20T17:15:51.440Z,19.3
2023-03-20T17:17:07.682Z,21.5
2023-03-20T17:18:23.938Z,20.1
2023-03-20T17:19:39.180Z,20.4
2023-03-20T17:20:55.450Z,20.4